Shengxian, China
Current Conditions -  °F | °C
As of 7:00 AM on Sunday 21 Dec 2014 (Local Time) from ZSNB Reporting Station
Clear Clear  
Wind Chill: 28°   Ceiling: Unl
Heat Index: 34°   Visibility: 4mi
Dew Point: 30°   Wind: 7mph
Humidity: 87%   Direction: 300°WNW
Pressure: 30.42"   Gusts: NA
Location:  29.6°N, 120.82°E
Report Text: ZSNB 202300Z 30003MPS 6000 NSC 01/M01 Q1030 NOSIG
Loading
Personal Weather Stations






























Interactive Weather Map New forecast layout! Learn more

10-Day Weather Forecast

Advertisements
Track Severe Weather on mobile